BDL weather

Bradley International Airport
Hartford, Connecticut, United States

Public forecast

Using degrees Fahrenheit for public forecast. Weather courtesy of forecast.io.

METAR (pilot weather report)

Retrieved 2018/07/15 21:51 UTC (34 minutes ago):

KBDL 152151Z 20007KT 10SM FEW028 FEW130 31/21 A2990 RMK AO2 SLP124 T03110211

TAF (pilot weather forecast)

Retrieved 2018/07/15 18:24 UTC (4 hours ago):

TAF KBDL 151721Z 1518/1624 28003KT P6SM VCSH SCT060 FM152000 25005KT P6SM SCT080 FM160400 17003KT P6SM FEW250 FM161000 00000KT 5SM BR BKN010 FM161200 00000KT P6SM SCT250 FM161800 19006KT P6SM VCSH SCT050